Terminal Aerodrome Forecast
Issued by NWS Albany, NY

Home | Current Version | Previous Version | Text Only | Print | Product List | Glossary On
Versions: 1 2 3 4 5 6 7 8 9 10 11 12 13 14 15 16 17 18
644
FTUS41 KALY 291139
TAFPOU
TAF
KPOU 291139Z 2912/3012 VRB03KT P6SM SCT050 OVC100
     FM291500 12004KT P6SM SCT030 OVC060
     FM292000 14005KT P6SM VCSH SCT035 OVC050
     FM300100 VRB03KT 6SM -SHRA BR SCT025 OVC035
     FM300500 00000KT 5SM BR OVC030=

USA.gov is the U.S. government's official web portal to all federal, state and local government web resources and services.